createdAt,value
2022-11-20T00:01:34.938Z,66.08
2022-11-20T00:04:05.013Z,65.67
2022-11-20T00:06:33.556Z,64.91
2022-11-20T00:09:02.636Z,64.65
2022-11-20T00:11:32.779Z,65.60
2022-11-20T00:14:03.525Z,64.82
2022-11-20T00:16:33.989Z,65.07
2022-11-20T00:19:02.519Z,65.95
2022-11-20T00:21:32.822Z,65.57
2022-11-20T00:24:01.320Z,67.29
2022-11-20T00:26:30.022Z,67.88
2022-11-20T00:28:59.911Z,67.29
2022-11-20T00:31:29.106Z,66.93
2022-11-20T00:33:58.041Z,66.00
2022-11-20T00:36:28.273Z,65.66
2022-11-20T00:38:59.454Z,65.91
2022-11-20T00:41:29.274Z,65.50
2022-11-20T00:43:58.077Z,66.16
2022-11-20T00:46:28.306Z,65.27
2022-11-20T00:48:57.136Z,66.86
2022-11-20T00:51:27.109Z,66.05
2022-11-20T00:53:59.027Z,66.46
2022-11-20T00:56:27.881Z,66.79
2022-11-20T00:58:56.375Z,67.44
2022-11-20T01:01:26.683Z,67.00
2022-11-20T01:03:57.371Z,66.98
2022-11-20T01:06:27.557Z,65.30
2022-11-20T01:08:59.154Z,65.10
2022-11-20T01:11:29.542Z,66.08
2022-11-20T01:13:59.501Z,67.60
2022-11-20T01:16:30.187Z,66.06
2022-11-20T01:19:01.258Z,66.10
2022-11-20T01:21:31.788Z,66.62
2022-11-20T01:24:02.707Z,65.92
2022-11-20T01:26:33.175Z,64.48
2022-11-20T01:29:02.683Z,65.41
2022-11-20T01:31:32.754Z,66.56
2022-11-20T01:34:02.813Z,68.07
2022-11-20T01:36:32.743Z,67.62
2022-11-20T01:39:06.012Z,66.74
2022-11-20T01:41:53.777Z,65.85
2022-11-20T01:44:24.249Z,65.85
2022-11-20T01:46:59.976Z,66.90
2022-11-20T01:49:36.679Z,65.85
2022-11-20T01:52:09.751Z,64.64
2022-11-20T01:54:45.815Z,65.21
2022-11-20T01:57:16.139Z,66.52
2022-11-20T01:59:50.255Z,66.95
2022-11-20T02:02:22.302Z,66.79
2022-11-20T02:04:54.123Z,65.55
2022-11-20T02:07:23.336Z,65.16
2022-11-20T02:09:57.485Z,65.28
2022-11-20T02:12:44.597Z,64.88
2022-11-20T02:15:35.467Z,66.18
2022-11-20T02:18:04.161Z,65.47
2022-11-20T02:20:32.267Z,65.13
2022-11-20T02:23:07.170Z,66.25
2022-11-20T02:25:39.204Z,65.09
2022-11-20T02:28:08.272Z,66.25
2022-11-20T02:30:36.670Z,66.56
2022-11-20T02:33:05.096Z,66.81
2022-11-20T02:35:47.393Z,65.91
2022-11-20T02:38:17.146Z,64.80
2022-11-20T02:40:54.087Z,64.18
2022-11-20T02:43:23.943Z,63.02
2022-11-20T02:45:52.364Z,62.44
2022-11-20T02:48:20.745Z,63.15
2022-11-20T02:50:49.142Z,63.68
2022-11-20T02:53:17.549Z,63.93
2022-11-20T02:55:47.356Z,63.12
2022-11-20T02:58:15.824Z,61.35
2022-11-20T03:00:44.222Z,63.29
2022-11-20T03:03:12.596Z,64.67
2022-11-20T03:05:41.038Z,63.58
2022-11-20T03:08:09.614Z,63.72
2022-11-20T03:10:37.774Z,63.85
2022-11-20T03:13:07.645Z,64.08
2022-11-20T03:15:37.683Z,63.18
2022-11-20T03:18:06.541Z,64.58
2022-11-20T03:20:35.952Z,63.85
2022-11-20T03:23:05.006Z,63.56
2022-11-20T03:25:33.502Z,64.31
2022-11-20T03:28:01.867Z,62.82
2022-11-20T03:30:31.730Z,62.69
2022-11-20T03:33:00.233Z,63.74
2022-11-20T03:35:28.658Z,62.85
2022-11-20T03:37:57.178Z,62.68
2022-11-20T03:40:28.198Z,63.42
2022-11-20T03:42:57.028Z,62.71
2022-11-20T03:45:27.511Z,61.48
2022-11-20T03:47:57.371Z,63.51
2022-11-20T03:50:28.973Z,62.97
2022-11-20T03:52:57.393Z,62.57
2022-11-20T03:55:25.779Z,60.98
2022-11-20T03:57:54.290Z,62.42
2022-11-20T04:00:22.691Z,62.44
2022-11-20T04:02:53.401Z,61.00
2022-11-20T04:05:23.337Z,61.07
2022-11-20T04:07:51.875Z,60.87
2022-11-20T04:10:20.425Z,60.17
2022-11-20T04:12:48.612Z,61.44
2022-11-20T04:15:17.606Z,60.58
2022-11-20T04:17:45.965Z,63.73
2022-11-20T04:20:14.546Z,62.39
2022-11-20T04:22:44.470Z,62.10
2022-11-20T04:25:13.071Z,62.84
2022-11-20T04:27:41.140Z,63.08
2022-11-20T04:30:10.786Z,61.42
2022-11-20T04:32:40.066Z,61.73
2022-11-20T04:35:08.973Z,61.46
2022-11-20T04:37:37.466Z,61.98
2022-11-20T04:40:08.498Z,61.08
2022-11-20T04:42:36.960Z,61.47
2022-11-20T04:45:05.801Z,60.49
2022-11-20T04:47:34.191Z,61.32
2022-11-20T04:50:02.616Z,61.23
2022-11-20T04:52:32.036Z,62.05
2022-11-20T04:55:00.553Z,60.59
2022-11-20T04:57:30.395Z,60.33
2022-11-20T04:59:58.958Z,59.76
2022-11-20T05:02:27.134Z,61.01
2022-11-20T05:04:55.543Z,60.89
2022-11-20T05:07:24.060Z,59.33
2022-11-20T05:09:52.472Z,59.32
2022-11-20T05:12:20.948Z,61.90
2022-11-20T05:14:50.730Z,60.99
2022-11-20T05:17:19.259Z,62.07
2022-11-20T05:19:52.875Z,61.34
2022-11-20T05:22:21.669Z,61.64
2022-11-20T05:24:50.139Z,61.21
2022-11-20T05:27:18.612Z,60.37
2022-11-20T05:29:47.024Z,59.00
2022-11-20T05:32:16.923Z,59.97
2022-11-20T05:34:45.323Z,58.83
2022-11-20T05:37:13.699Z,59.33
2022-11-20T05:39:42.084Z,60.68
2022-11-20T05:42:28.131Z,60.21
2022-11-20T05:44:56.610Z,60.35
2022-11-20T05:47:26.671Z,60.25
2022-11-20T05:49:55.252Z,59.01
2022-11-20T05:52:23.812Z,58.93
2022-11-20T05:54:52.312Z,60.30
2022-11-20T05:57:20.725Z,61.44
2022-11-20T05:59:49.229Z,59.84
2022-11-20T06:02:17.807Z,61.42
2022-11-20T06:04:47.372Z,60.85
2022-11-20T06:07:15.873Z,58.88
2022-11-20T06:09:44.330Z,60.76
2022-11-20T06:12:12.813Z,58.85
2022-11-20T06:14:41.224Z,59.88
2022-11-20T06:17:09.679Z,59.30
2022-11-20T06:19:38.154Z,57.88
2022-11-20T06:22:08.119Z,58.39
2022-11-20T06:24:36.613Z,58.23
2022-11-20T06:27:05.384Z,58.88
2022-11-20T06:29:34.294Z,60.20
2022-11-20T06:32:02.941Z,60.75
2022-11-20T06:34:31.088Z,59.97
2022-11-20T06:36:59.547Z,60.92
2022-11-20T06:39:29.330Z,58.41
2022-11-20T06:41:59.218Z,57.28
2022-11-20T06:44:28.265Z,57.37
2022-11-20T06:46:56.667Z,58.32
2022-11-20T06:49:26.256Z,56.86
2022-11-20T06:51:54.877Z,57.11
2022-11-20T06:54:23.930Z,55.86
2022-11-20T06:56:53.704Z,53.96
2022-11-20T06:59:22.643Z,54.78
2022-11-20T07:01:51.558Z,56.08
2022-11-20T07:04:19.986Z,56.53
2022-11-20T07:06:48.432Z,56.22
2022-11-20T07:09:17.459Z,58.26
2022-11-20T07:11:45.877Z,59.28
2022-11-20T07:14:15.797Z,58.09
2022-11-20T07:16:44.390Z,57.59
2022-11-20T07:19:12.640Z,58.34
2022-11-20T07:21:41.086Z,60.70
2022-11-20T07:24:09.590Z,57.33
2022-11-20T07:26:38.063Z,58.56
2022-11-20T07:29:06.762Z,57.72
2022-11-20T07:31:36.828Z,56.63
2022-11-20T07:34:05.812Z,55.11
2022-11-20T07:36:34.265Z,54.83
2022-11-20T07:39:02.915Z,54.32
2022-11-20T07:41:32.645Z,55.40
2022-11-20T07:44:01.447Z,53.08
2022-11-20T07:46:30.022Z,55.40
2022-11-20T07:48:59.904Z,54.09
2022-11-20T07:51:28.486Z,53.17
2022-11-20T07:53:56.591Z,55.29
2022-11-20T07:56:57.190Z,54.66
2022-11-20T07:59:26.214Z,54.41
2022-11-20T08:01:55.958Z,54.82
2022-11-20T08:04:26.040Z,54.39
2022-11-20T08:06:54.718Z,54.03
2022-11-20T08:09:23.458Z,52.75
2022-11-20T08:12:28.828Z,52.68
2022-11-20T08:15:41.246Z,55.08
2022-11-20T08:18:33.401Z,57.30
2022-11-20T08:21:06.262Z,57.27
2022-11-20T08:23:34.887Z,56.76
2022-11-20T08:26:03.018Z,54.57
2022-11-20T08:28:31.469Z,55.54
2022-11-20T08:31:03.623Z,54.27
2022-11-20T08:33:33.703Z,54.94
2022-11-20T08:36:03.210Z,55.99
2022-11-20T08:38:33.783Z,54.39
2022-11-20T08:41:20.497Z,53.91
2022-11-20T08:43:49.005Z,52.49
2022-11-20T08:46:17.465Z,51.58
2022-11-20T08:48:46.500Z,54.67
2022-11-20T08:51:15.595Z,55.37
2022-11-20T08:53:45.608Z,54.53
2022-11-20T08:56:14.478Z,53.89
2022-11-20T08:59:10.324Z,54.47
2022-11-20T09:01:31.861Z,53.92
2022-11-20T09:04:00.993Z,53.06
2022-11-20T09:06:29.636Z,53.74
2022-11-20T09:09:03.503Z,55.22
2022-11-20T09:11:34.917Z,56.44
2022-11-20T09:14:03.919Z,54.32
2022-11-20T09:16:32.394Z,55.67
2022-11-20T09:19:34.060Z,55.81
2022-11-20T09:21:49.648Z,55.06
2022-11-20T09:24:24.181Z,53.73
2022-11-20T09:26:55.466Z,52.93
2022-11-20T09:29:25.281Z,55.21
2022-11-20T09:31:53.928Z,55.45
2022-11-20T09:34:22.190Z,55.95
2022-11-20T09:36:50.725Z,55.84
2022-11-20T09:39:21.594Z,54.57
2022-11-20T09:42:05.774Z,55.47
2022-11-20T09:45:11.152Z,54.66
2022-11-20T09:47:52.845Z,55.75
2022-11-20T09:50:32.042Z,56.54
2022-11-20T09:53:16.120Z,55.94
2022-11-20T09:55:49.294Z,56.93
2022-11-20T09:58:30.509Z,54.76
2022-11-20T10:01:03.185Z,56.14
2022-11-20T10:03:42.939Z,56.39
2022-11-20T10:06:15.960Z,54.84
2022-11-20T10:08:47.597Z,55.76
2022-11-20T10:11:27.746Z,56.75
2022-11-20T10:14:09.444Z,56.53
2022-11-20T10:16:48.757Z,56.01
2022-11-20T10:19:33.141Z,56.42
2022-11-20T10:22:12.181Z,56.07
2022-11-20T10:24:47.073Z,54.81
2022-11-20T10:27:35.061Z,55.06
2022-11-20T10:30:05.888Z,55.41
2022-11-20T10:32:40.037Z,53.67
2022-11-20T10:35:21.312Z,56.93
2022-11-20T10:37:55.635Z,57.42
2022-11-20T10:40:34.886Z,57.69
2022-11-20T10:43:14.432Z,57.70
2022-11-20T10:45:53.317Z,58.60
2022-11-20T10:48:24.625Z,56.78
2022-11-20T10:51:06.157Z,55.82
2022-11-20T10:53:47.756Z,57.04
2022-11-20T10:56:22.532Z,55.95
2022-11-20T10:59:03.306Z,56.95
2022-11-20T11:01:31.847Z,56.90
2022-11-20T11:04:01.203Z,57.96
2022-11-20T11:06:37.685Z,57.16
2022-11-20T11:09:14.154Z,56.69
2022-11-20T11:11:42.662Z,57.33
2022-11-20T11:14:16.408Z,57.70
2022-11-20T11:16:53.043Z,57.55
2022-11-20T11:19:22.148Z,57.38
2022-11-20T11:21:55.842Z,57.09
2022-11-20T11:24:41.652Z,58.01
2022-11-20T11:27:17.528Z,58.42
2022-11-20T11:29:47.941Z,59.28
2022-11-20T11:32:18.291Z,59.67
2022-11-20T11:34:47.181Z,60.23
2022-11-20T11:37:22.632Z,60.54
2022-11-20T11:40:03.957Z,61.49
2022-11-20T11:42:45.069Z,61.78
2022-11-20T11:45:18.455Z,61.61
2022-11-20T11:47:49.806Z,61.78
2022-11-20T11:50:22.245Z,60.67
2022-11-20T11:52:58.791Z,61.85
2022-11-20T11:55:36.000Z,62.09
2022-11-20T11:58:16.744Z,62.22
2022-11-20T12:00:57.788Z,61.91
2022-11-20T12:03:31.731Z,61.19
2022-11-20T12:06:05.198Z,60.61
2022-11-20T12:08:39.666Z,61.47
2022-11-20T12:11:15.890Z,61.93
2022-11-20T12:13:51.037Z,61.27
2022-11-20T12:16:22.883Z,61.05
2022-11-20T12:18:54.461Z,60.10
2022-11-20T12:21:30.599Z,61.34
2022-11-20T12:24:17.996Z,59.23
2022-11-20T12:26:58.993Z,59.57
2022-11-20T12:29:37.692Z,60.98
2022-11-20T12:32:33.857Z,61.41
2022-11-20T12:35:13.780Z,61.64
2022-11-20T12:37:54.525Z,60.40
2022-11-20T12:40:35.387Z,60.62
2022-11-20T12:43:30.802Z,60.59
2022-11-20T12:46:15.895Z,61.28
2022-11-20T12:49:06.029Z,61.83
2022-11-20T12:51:50.767Z,60.78
2022-11-20T12:54:44.525Z,61.04
2022-11-20T12:57:20.801Z,60.71
2022-11-20T13:00:15.027Z,60.49
2022-11-20T13:03:15.000Z,60.90
2022-11-20T13:06:02.454Z,61.98
2022-11-20T13:08:35.199Z,61.63
2022-11-20T13:11:12.426Z,61.89
2022-11-20T13:13:50.103Z,61.88
2022-11-20T13:16:27.250Z,61.42
2022-11-20T13:18:56.059Z,61.14
2022-11-20T13:21:38.983Z,61.18
2022-11-20T13:24:08.317Z,61.24
2022-11-20T13:26:36.920Z,61.25
2022-11-20T13:29:07.702Z,60.72
2022-11-20T13:31:39.579Z,60.36
2022-11-20T13:34:16.104Z,61.05
2022-11-20T13:36:54.363Z,61.64
2022-11-20T13:39:29.723Z,59.89
2022-11-20T13:41:59.443Z,59.75
2022-11-20T13:44:32.026Z,61.35
2022-11-20T13:47:09.905Z,61.15
2022-11-20T13:49:45.351Z,61.96
2022-11-20T13:52:42.093Z,61.49
2022-11-20T13:55:44.988Z,63.17
2022-11-20T13:58:38.550Z,62.30
2022-11-20T14:01:17.641Z,62.59
2022-11-20T14:06:47.334Z,62.41
2022-11-20T14:09:29.006Z,62.33
2022-11-20T14:11:58.312Z,63.53
2022-11-20T14:14:28.592Z,62.19
2022-11-20T14:17:08.345Z,62.87
2022-11-20T14:19:38.266Z,63.28
2022-11-20T14:22:13.313Z,62.62
2022-11-20T14:24:43.367Z,63.13
2022-11-20T14:27:16.779Z,64.18
2022-11-20T14:29:47.062Z,64.74
2022-11-20T14:32:18.619Z,64.22
2022-11-20T14:34:49.500Z,64.39
2022-11-20T14:37:22.868Z,64.53
2022-11-20T14:39:55.357Z,64.73
2022-11-20T14:42:26.231Z,64.10
2022-11-20T14:44:57.765Z,62.88
2022-11-20T14:47:29.210Z,62.65
2022-11-20T14:49:59.524Z,63.11
2022-11-20T14:52:29.538Z,62.35
2022-11-20T14:55:01.156Z,61.75
2022-11-20T14:57:34.316Z,61.69
2022-11-20T15:00:18.183Z,61.58
2022-11-20T15:02:51.527Z,62.29
2022-11-20T15:05:21.833Z,61.38
2022-11-20T15:07:52.167Z,62.41
2022-11-20T15:10:27.387Z,61.83
2022-11-20T15:12:58.035Z,62.49
2022-11-20T15:15:32.399Z,62.77
2022-11-20T15:18:01.699Z,62.38
2022-11-20T15:20:33.195Z,62.54
2022-11-20T15:23:01.930Z,62.29
2022-11-20T15:25:31.848Z,63.46
2022-11-20T15:28:00.323Z,63.32
2022-11-20T15:30:28.704Z,63.91
2022-11-20T15:32:57.135Z,63.61
2022-11-20T15:35:25.678Z,63.19
2022-11-20T15:37:54.647Z,63.02
2022-11-20T15:40:23.026Z,62.47
2022-11-20T15:43:09.929Z,62.42
2022-11-20T15:45:44.007Z,62.73
2022-11-20T15:48:16.585Z,62.44
2022-11-20T15:50:53.145Z,61.47
2022-11-20T15:53:21.788Z,61.30
2022-11-20T15:55:50.451Z,61.12
2022-11-20T15:58:20.283Z,61.07
2022-11-20T16:00:49.947Z,60.43
2022-11-20T16:03:19.995Z,60.61
2022-11-20T16:05:49.090Z,59.08
2022-11-20T16:08:18.678Z,58.85
2022-11-20T16:10:54.677Z,60.52
2022-11-20T16:13:42.315Z,62.55
2022-11-20T16:16:20.925Z,62.56
2022-11-20T16:18:49.594Z,62.99
2022-11-20T16:21:18.383Z,63.20
2022-11-20T16:23:46.839Z,63.58
2022-11-20T16:26:16.962Z,62.71
2022-11-20T16:28:47.103Z,62.11
2022-11-20T16:31:17.690Z,62.17
2022-11-20T16:33:52.043Z,62.51
2022-11-20T16:36:22.394Z,63.10
2022-11-20T16:38:54.737Z,62.40
2022-11-20T16:41:23.374Z,62.36
2022-11-20T16:43:55.018Z,62.79
2022-11-20T16:46:24.854Z,62.28
2022-11-20T16:48:57.616Z,63.19
2022-11-20T16:51:27.233Z,61.95
2022-11-20T16:53:56.468Z,60.65
2022-11-20T16:56:26.832Z,60.39
2022-11-20T16:58:58.649Z,61.25
2022-11-20T17:01:29.212Z,61.76
2022-11-20T17:03:59.489Z,61.50
2022-11-20T17:06:30.061Z,60.93
2022-11-20T17:08:59.553Z,59.74
2022-11-20T17:11:28.897Z,60.26
2022-11-20T17:14:00.661Z,61.57
2022-11-20T17:16:29.573Z,62.19
2022-11-20T17:19:03.408Z,62.76
2022-11-20T17:21:33.056Z,61.83
2022-11-20T17:24:03.719Z,63.52
2022-11-20T17:26:32.218Z,64.66
2022-11-20T17:29:03.865Z,63.68
2022-11-20T17:31:34.884Z,64.00
2022-11-20T17:34:03.673Z,62.72
2022-11-20T17:36:32.275Z,60.93
2022-11-20T17:39:00.773Z,59.35
2022-11-20T17:41:29.948Z,59.27
2022-11-20T17:44:00.354Z,60.28
2022-11-20T17:46:32.878Z,59.66
2022-11-20T17:49:02.307Z,60.17
2022-11-20T17:51:32.219Z,61.06
2022-11-20T17:54:03.013Z,61.66
2022-11-20T17:56:53.767Z,61.43
2022-11-20T17:59:24.239Z,61.14
2022-11-20T18:01:55.553Z,61.55
2022-11-20T18:04:26.387Z,61.13
2022-11-20T18:06:54.983Z,60.94
2022-11-20T18:09:23.417Z,59.87
2022-11-20T18:11:52.015Z,58.95
2022-11-20T18:14:34.621Z,58.58
2022-11-20T18:17:06.658Z,58.33
2022-11-20T18:19:41.130Z,60.53
2022-11-20T18:22:17.605Z,60.36
2022-11-20T18:24:46.375Z,61.41
2022-11-20T18:27:16.549Z,60.39
2022-11-20T18:29:46.610Z,60.52
2022-11-20T18:32:16.644Z,60.51
2022-11-20T18:34:45.150Z,61.01
2022-11-20T18:37:15.661Z,61.50
2022-11-20T18:39:46.538Z,61.34
2022-11-20T18:42:34.286Z,61.93
2022-11-20T18:45:04.593Z,61.79
2022-11-20T18:47:38.099Z,61.17
2022-11-20T18:50:08.717Z,59.63
2022-11-20T18:52:44.672Z,58.80
2022-11-20T18:55:14.210Z,57.50
2022-11-20T18:57:42.683Z,59.93
2022-11-20T19:00:12.209Z,59.16
2022-11-20T19:02:43.630Z,59.35
2022-11-20T19:05:12.897Z,58.05
2022-11-20T19:07:41.649Z,57.43
2022-11-20T19:10:10.758Z,59.59
2022-11-20T19:12:39.213Z,60.83
2022-11-20T19:15:08.451Z,61.13
2022-11-20T19:17:37.001Z,62.05
2022-11-20T19:20:07.809Z,60.96
2022-11-20T19:22:36.251Z,60.98
2022-11-20T19:25:05.203Z,60.84
2022-11-20T19:27:33.746Z,60.25
2022-11-20T19:30:03.778Z,60.47
2022-11-20T19:32:35.423Z,59.13
2022-11-20T19:35:04.814Z,61.17
2022-11-20T19:37:36.085Z,61.15
2022-11-20T19:40:05.579Z,61.41
2022-11-20T19:42:34.163Z,60.43
2022-11-20T19:45:02.619Z,60.32
2022-11-20T19:48:05.910Z,59.13
2022-11-20T19:50:21.706Z,60.64
2022-11-20T19:52:57.236Z,62.11
2022-11-20T19:55:27.391Z,62.68
2022-11-20T19:57:58.419Z,63.18
2022-11-20T20:00:32.305Z,61.96
2022-11-20T20:03:01.322Z,62.05
2022-11-20T20:05:29.801Z,61.44
2022-11-20T20:07:59.477Z,61.61
2022-11-20T20:10:29.615Z,61.81
2022-11-20T20:12:58.420Z,61.51
2022-11-20T20:15:27.245Z,62.82
2022-11-20T20:17:56.173Z,62.26
2022-11-20T20:20:25.015Z,61.76
2022-11-20T20:22:53.508Z,60.22
2022-11-20T20:25:23.336Z,61.92
2022-11-20T20:27:51.779Z,61.53
2022-11-20T20:30:20.288Z,60.12
2022-11-20T20:32:53.310Z,59.82
2022-11-20T20:35:24.600Z,60.30
2022-11-20T20:37:52.891Z,60.16
2022-11-20T20:40:22.725Z,59.85
2022-11-20T20:42:51.181Z,60.23
2022-11-20T20:45:19.555Z,59.85
2022-11-20T20:47:47.998Z,59.35
2022-11-20T20:50:16.769Z,59.71
2022-11-20T20:52:45.848Z,59.96
2022-11-20T20:55:14.348Z,58.75
2022-11-20T20:57:43.974Z,57.93
2022-11-20T21:00:13.086Z,57.89
2022-11-20T21:02:41.577Z,59.54
2022-11-20T21:05:10.999Z,60.32
2022-11-20T21:07:59.571Z,58.95
2022-11-20T21:10:28.186Z,58.13
2022-11-20T21:12:58.112Z,58.82
2022-11-20T21:15:26.572Z,57.64
2022-11-20T21:17:55.046Z,56.25
2022-11-20T21:20:41.304Z,56.76
2022-11-20T21:23:11.096Z,57.17
2022-11-20T21:25:40.401Z,58.03
2022-11-20T21:28:14.369Z,57.59
2022-11-20T21:30:45.851Z,58.66
2022-11-20T21:33:14.529Z,59.15
2022-11-20T21:35:42.660Z,59.14
2022-11-20T21:38:11.106Z,59.36
2022-11-20T21:40:39.501Z,60.51
2022-11-20T21:43:09.359Z,59.22
2022-11-20T21:45:37.922Z,58.86
2022-11-20T21:48:07.199Z,59.46
2022-11-20T21:50:36.260Z,58.53
2022-11-20T21:53:04.751Z,59.86
2022-11-20T21:55:33.220Z,58.10
2022-11-20T21:58:01.630Z,58.17
2022-11-20T22:00:31.613Z,58.62
2022-11-20T22:03:00.133Z,58.44
2022-11-20T22:05:28.561Z,59.33
2022-11-20T22:07:57.030Z,58.85
2022-11-20T22:10:25.703Z,58.59
2022-11-20T22:13:14.593Z,57.03
2022-11-20T22:15:59.943Z,55.64
2022-11-20T22:18:29.642Z,56.14
2022-11-20T22:20:58.123Z,57.03
2022-11-20T22:23:26.769Z,57.39
2022-11-20T22:25:55.023Z,57.45
2022-11-20T22:28:23.457Z,57.06
2022-11-20T22:30:53.276Z,57.54
2022-11-20T22:33:21.692Z,57.29
2022-11-20T22:35:50.196Z,55.89
2022-11-20T22:38:18.711Z,57.41
2022-11-20T22:40:48.648Z,59.28
2022-11-20T22:43:17.221Z,60.03
2022-11-20T22:45:46.620Z,59.01
2022-11-20T22:48:16.485Z,57.48
2022-11-20T22:50:45.318Z,57.24
2022-11-20T22:53:13.755Z,56.90
2022-11-20T22:55:42.152Z,57.55
2022-11-20T22:58:10.504Z,58.12
2022-11-20T23:00:38.938Z,59.42
2022-11-20T23:03:07.405Z,59.79
2022-11-20T23:05:37.178Z,60.09
2022-11-20T23:08:06.002Z,59.65
2022-11-20T23:10:34.442Z,61.17
2022-11-20T23:13:02.858Z,60.38
2022-11-20T23:15:31.319Z,58.78
2022-11-20T23:17:59.783Z,57.93
2022-11-20T23:20:28.179Z,57.39
2022-11-20T23:22:57.963Z,59.14
2022-11-20T23:25:26.411Z,60.39
2022-11-20T23:27:55.465Z,62.18
2022-11-20T23:30:23.857Z,61.30
2022-11-20T23:32:52.285Z,58.94
2022-11-20T23:35:20.806Z,58.46
2022-11-20T23:37:48.877Z,58.83
2022-11-20T23:40:18.962Z,58.45
2022-11-20T23:43:01.217Z,58.25
2022-11-20T23:45:29.723Z,58.25
2022-11-20T23:47:58.694Z,60.18
2022-11-20T23:50:27.063Z,59.55
2022-11-20T23:52:55.472Z,58.35
2022-11-20T23:55:25.319Z,57.37
2022-11-20T23:57:53.788Z,56.96
